Ride Results

Wingello Forest Ride (27-05-2017)
Ride distance: 80.0 km

Outcomes - Wingello Forest Ride (27-05-2017)
Division No. of Entries Retired / DNE Completed Withdrawn Ineligible V/O Percentage Completed
HW 24 - 17 - - 7 70.83%
MW 47 - 35 2 1 9 74.47%
LW 22 - 18 1 - 3 81.82%
JN 12 - 9 1 - 2 75.00%
Totals 105 - 79 4 1 21 75.24%
Results - Wingello Forest Ride (27-05-2017)
No. Rider Horse Place Time Leg Speeds Total
Km/Hr
H/R bpm
Heavyweight
476 Christopher Bailey Prince Nakeel Spa 1 (BC) 4:02:00 18.3, 21.6 19.83 36, 41, 42 (Avg:41)
481 Andrew Jonkers Girilambone Comet 2 5:39:00 14.0, 14.2 14.16 35, 40, 43 (Avg:41)
464 Renee Gough Jon De Le Hazad 3 5:47:00 13.7, 13.9 13.83 31, 40, 54 (Avg:47)
480 Kate Johnson Ellie 4 6:27:00 12.9, 11.8 12.40 35, 38, 44 (Avg:41)
473 Keith Sumpner Fonda 5 6:30:00 14.3, 10.6 12.31 34, 48, 54 (Avg:51)
463 Steve Broadbent Deepea Rafiq 6 6:31:00 13.0, 11.5 12.28 27, 47, 52 (Avg:49)
469 Rhys Norman Owata Park Amirah 7 6:38:00 13.2, 10.9 12.06 40, 49, 56 (Avg:52)
466 Heidi Wade Love In The Mist 7 6:38:00 13.1, 11.0 12.06 38, 44, 48 (Avg:46)
477 Peter Norman Contessa 9 6:46:00 12.1, 11.5 11.82 40, 40, 52 (Avg:46)
462 Stuart Lymbery Baranne Tu-Shay 10 6:51:00 11.7, 11.5 11.68 34, 36, 42 (Avg:39)
471 Alex Chua Sandine Gadget 11 7:14:00 11.4, 10.6 11.06 34, 41, 58 (Avg:49)
475 Michaela Araldi Annaliisa'ar 12 7:19:00 10.9, 10.8 10.93 30, 41, 54 (Avg:47)
468 Jason Hooper A'Landell Enigma 13 7:23:00 13.3, 9.0 10.84 33, 42, 54 (Avg:48)
472 Sarah Kelly Littlebanks Storm 14 7:41:00 11.6, 9.3 10.41 28, 44, 44 (Avg:44)
483 Ian Dreghorn AusdenNile Prinz 15 7:50:00 12.1, 8.7 10.21 32, 45, 42 (Avg:43)
470 John Howe Ashbend Perazzi 15 7:50:00 11.3, 9.2 10.21 44, 47, 46 (Avg:46)
479 Vernon Brown Prince 17 7:55:00 11.8, 8.7 10.11 38, 52, 60 (Avg:56)
460 Allan Caslick Wanstead Love Story Lame L2 0:00:00 12.2, 11.0 - 36, 45, 52 (Avg:48)
478 Rod Mitchell Aloha Tribal Warrior Lame L2 0:00:00 13.0, 11.9 - 35, 39, 52 (Avg:45)
482 Marty Moran Forest Dale Xcalibur Lame L2 0:00:00 15.6, 15.5 - 36, 42, 60 (Avg:51)
461 Andrew Bailey Ali-Mae Spa Lame L1 0:00:00 18.3 - 36, 45 (Avg:45)
474 Roy Barsby Dumaresq Buzz Lame L1 0:00:00 15.1 - 36, 39 (Avg:39)
465 Con Bouzianis Conderosa Zaheera Metabolics moderate L1 0:00:00 18.3 - 36, 84 (Avg:84)
467 Kathryn Priol Kalkadoon Lucifer Lame L1 0:00:00 14.6 - 27, 44 (Avg:44)
Middleweight
427 Georgia Curry Mountain Breeze Just Annallusion 1 3:47:00 21.5, 20.7 21.15 36, 48, 55 (Avg:51)
436 Gertraud Norton Scarlet Oaks Amica 2 4:15:00 21.7, 16.4 18.82 37, 48, 58 (Avg:53)
405 Scott Peters Castlebar Icon 3 4:29:00 18.3, 17.3 17.84 48, 42, 41 (Avg:41)
432 Anita Ashby Lentara Park Heather 4 5:14:00 16.7, 14.0 15.29 38, 48, 44 (Avg:46)
410 Debbie Pevy Regal Buddie 5 5:33:00 14.3, 14.5 14.41 35, 54, 60 (Avg:57)
419 Gavin Peacock Chop Chop 6 5:34:00 15.3, 13.4 14.37 32, 46, 42 (Avg:44)
442 Kylie Jonkers Girilambone Venus 7 5:39:00 14.0, 14.2 14.16 35, 34, 46 (Avg:40)
401 Charlene Malone Jon De Le Jasper 8 5:47:00 13.7, 13.9 13.83 29, 40, 48 (Avg:44)
435 Talea Hasko-Stewart Blake's Heaven Summer Reign 9 5:54:00 13.0, 14.1 13.56 32, 42, 47 (Avg:44)
416 Leanne Hickson Kharbo 9 5:54:00 14.0, 13.0 13.56 30, 45, 60 (Avg:52)
415 Jennifer Rogers Burren-Dah Smokin Joe 9 5:54:00 14.0, 13.0 13.56 34, 36, 37 (Avg:36)
423 Peter Bice Georgie Girl 12 5:56:00 15.6, 11.7 13.48 36, 46, 48 (Avg:47)
433 Noni Seagrim Coolinda Park Sheeza Doll 13 6:18:00 12.6, 12.7 12.70 36, 44, 41 (Avg:42)
439 Emily Streckfuss Zarafa 13 6:18:00 12.5, 12.8 12.70 38, 38, 43 (Avg:40)
444 Fiona Meller Malu Vale Embers 15 6:21:00 13.2, 11.9 12.60 34, 36, 48 (Avg:42)
404 Kristin Reese Cedar Glen Cassia 15 6:21:00 13.1, 12.0 12.60 37, 44, 42 (Avg:43)
418 Karen Anderson Malleegrove Samsara 17 6:24:00 14.6, 10.8 12.50 36, 50, 56 (Avg:53)
445 Sharyn Coulston Castlebar Baccarat 17 6:24:00 12.1, 12.9 12.50 40, 44, 50 (Avg:47)
440 Jo Davis Wicketly Good 19 6:30:00 12.8, 11.7 12.31 37, 45, 44 (Avg:44)
407 James Ryan Cedar Ridge Hy Regard 19 6:30:00 12.8, 11.7 12.31 31, 44, 44 (Avg:44)
412 John Symons Ruby Rose 21 6:47:00 12.6, 11.0 11.79 37, 44, 47 (Avg:45)
424 Jennifer Gilbertson All Aglow At Webbscreek 22 6:49:00 11.3, 12.1 11.74 34, 52, 54 (Avg:53)
422 Tayla Hadzi Oso Evita 23 6:51:00 11.8, 11.5 11.68 32, 41, 44 (Avg:42)
402 Anne Lymbery Toprail Mahogany 23 6:51:00 11.7, 11.5 11.68 34, 48, 58 (Avg:53)
403 Sarah Lymbery Aloha Typic 23 6:51:00 11.7, 11.5 11.68 33, 40, 43 (Avg:41)
400 Jennifer Caslick Sienna Kaptivating 26 6:52:00 12.2, 11.0 11.65 31, 52, 52 (Avg:52)
431 Jesse Buchan Mountain Ash Tabasco 27 6:59:00 12.1, 10.8 11.46 38, 43, 57 (Avg:50)
417 Nicole Smith Malvern Harmony 28 7:02:00 11.4, 11.3 11.37 36, 40, 52 (Avg:46)
408 Thomas Hermann Wasabi 29 7:08:00 11.4, 10.9 11.21 36, 37, 44 (Avg:40)
458 Daniel Noble Littlebanks Muscles 30 7:14:00 11.4, 10.6 11.06 36, 48, 46 (Avg:47)
421 Mitchell Ravallion Littlebanks Silver Eco 30 7:14:00 11.4, 10.6 11.06 36, 50, 59 (Avg:54)
441 Andrew Mackinder Sundown Park Cariad 32 7:19:00 10.9, 10.8 10.93 31, 38, 36 (Avg:37)
411 Brett Willis Carlwood Park Austen 33 7:22:00 11.7, 10.0 10.86 32, 40, 48 (Avg:44)
414 Monique Funnell Aztec 34 7:28:00 11.5, 9.9 10.71 36, 55, 60 (Avg:57)
428 Rebecca Lees Ralvon Eternity 35 7:41:00 11.6, 9.3 10.41 30, 42, 52 (Avg:47)
429 Aimee Austin Simeon Bollinger Heart Rate L2 0:00:00 11.4, 11.0 - 37, 43, 72 (Avg:57)
409 Tomeika Bond-Pevy Mr Bo-Jangles Metabolics moderate L2 0:00:00 4.5, 2.9 - 36, 55 (Avg:55)
420 Alycia Dawson AM Final Cascade Lame L2 0:00:00 11.8, 10.7 - 29, 40, 39 (Avg:39)
437 Clare Feary Die Kinder Junrei Metabolics L2 0:00:00 17.9, 16.9 - 38, 52, 43 (Avg:47)
425 Mohd Halim Abd Rahim Liliel Withdrawn L2 0:00:00 - - 38, 52, 50 (Avg:51)
413 Stacey Hayter Arnie Heart Rate L2 0:00:00 11.5, 9.9 - 37, 46, 66 (Avg:56)
406 April Newman Taeaura Shayarnah Disqualified L2 (BC) 0:00:00 19.0, 24.1 - 42, 44, 59 (Avg:51)
443 Bev Turner Coco Chanel Lame L2 0:00:00 12.6, 11.0 - 35, 44, 46 (Avg:45)
438 Nicolle Brown Kie-Al Nasarian Lame L1 0:00:00 17.4 - 48, 43 (Avg:43)
426 Bruce Carter Mitanni Hairan Lame L1 0:00:00 11.1 - 37, 47 (Avg:47)
434 Ian Curtis Blake's Heaven Summer Wind Lame L1 0:00:00 21.2 - 36, 52 (Avg:52)
430 Brooke Warner Webbs Creek Lawson Withdrawn L1 0:00:00 - - 30, 36 (Avg:36)
Lightweight
300 Simon Bain Akifa Farras Ice 1 4:46:00 16.7, 16.8 16.78 33, 49, 58 (Avg:53)
330 Shirley Clark Oso Zoltan 2 5:16:00 16.0, 14.3 15.19 34, 41, 52 (Avg:46)
327 Kristie Wright Cooroora Allyjah 2 (BC) 5:16:00 16.0, 14.3 15.19 34, 34, 46 (Avg:40)
389 Roz Edmunds Everon Park Apollo 4 5:37:00 18.3, 11.5 14.24 37, 38, 51 (Avg:44)
396 Sue Todd Shakari Bear 5 5:56:00 15.6, 11.7 13.48 37, 47, 52 (Avg:49)
395 Jan Wade Hillville Amigo 6 6:13:00 15.5, 10.8 12.87 49, 43, 56 (Avg:49)
331 Dagmar Sweetland Jess 7 6:18:00 13.0, 12.3 12.70 33, 37, 40 (Avg:38)
392 Miki Bell Eminem Vyper 8 6:21:00 13.1, 12.0 12.60 39, 50, 58 (Avg:54)
391 Vanessa Richardson Turingal Park Vassili 8 6:21:00 13.1, 12.0 12.60 38, 36, 48 (Avg:42)
301 Elodie LeLabourier Jubane Diva 10 6:41:00 12.1, 11.8 11.97 34, 40, 48 (Avg:44)
398 Victoria Bice Webbs Creek Cattle Baron 11 6:49:00 11.3, 12.1 11.74 34, 40, 44 (Avg:42)
324 Amelia Napier Oso Emelyne 12 6:51:00 11.8, 11.5 11.68 40, 42, 46 (Avg:44)
393 Elizabeth Moir Cedar Ridge Oh Carol 13 6:57:00 11.5, 11.4 11.51 35, 41, 56 (Avg:48)
394 Louise Piddington West Coast Jericho 13 6:57:00 11.5, 11.4 11.51 32, 37, 56 (Avg:46)
325 Cherry Cummins Cabrillas Heir 15 7:06:00 11.8, 10.7 11.27 33, 44, 48 (Avg:46)
390 Mary Hollingsworth Cameo Ambrozia 15 7:06:00 11.7, 10.7 11.27 36, 41, 57 (Avg:49)
399 Leanne Holz Cedar Ridge Timewarp 17 7:22:00 11.7, 10.0 10.86 36, 39, 49 (Avg:44)
332 Julie Hooper Hirstglen Probably 18 7:23:00 13.3, 9.0 10.84 32, 50, 49 (Avg:49)
388 Cheny Collins Sandine Legal Lame L2 0:00:00 11.7, 10.7 - 36, 38, 43 (Avg:40)
387 Elaine Kirby Turingal Park Nicholas Lame L2 0:00:00 19.3, 12.7 - 40, 40, 51 (Avg:45)
386 Jenny Shepheard Currowan Cruise Heart Rate L2 0:00:00 13.5, 12.9 - 32, 44, 64 (Avg:54)
397 Vicki Mathew Cearadale Hanaani Withdrawn L1 0:00:00 - - 34, 49 (Avg:49)
Junior
326 Levi Robinson Karumba Beamish 1 5:06:00 16.7, 14.7 15.69 28, 39, 46 (Avg:42)
303 Laura Kelly Yinbilliko Shaka Zulu 2 (BC) 5:14:00 18.3, 12.9 15.29 32, 45, 49 (Avg:47)
323 Celia Hodgson Marat MA 3 5:54:00 13.0, 14.1 13.56 36, 44, 44 (Avg:44)
321 Liberty Mercer Castlebar Cossack 4 6:24:00 12.1, 12.9 12.50 34, 43, 46 (Avg:44)
319 Makayla Circosta Tamlyn PL Amira Shari 5 6:25:00 12.9, 11.9 12.47 34, 42, 46 (Avg:44)
304 Ciel Georgievski Lydia Te 6 6:38:00 13.1, 11.0 12.06 38, 36, 45 (Avg:40)
302 Lily Wheeler Yinbilliko Jackson 6 6:38:00 13.1, 11.0 12.06 30, 43, 45 (Avg:44)
328 Will Pankhurst Lara Dawn High Expectations 8 6:50:00 11.6, 11.7 11.71 34, 40, 54 (Avg:47)
322 Gabrielle Worth Phoenix CE 9 7:50:00 10.5, 9.8 10.21 32, 45, 60 (Avg:52)
320 Isabella Circosta Arabec Khavalier Lame L1 0:00:00 12.9 - 36, 48 (Avg:48)
329 Tom Pankhurst Rosevale Park Rashid Lame L1 0:00:00 11.7 - 30, 46 (Avg:46)
305 Madison Hooper Khalidah Tasneem Withdrawn P/R 0:00:00 - - 39